Terminal Aerodrome Forecast
Issued by NWS

Home | Current Version | Previous Version | Text Only | Print | Product List | Glossary Off
Versions: 1 2 3 4 5 6 7 8 9 10 11 12

732
FTUS43 KGRB 150520
TAFAUW
TAF
KAUW 150520Z 1506/1606 03008G15KT 6SM -SHRA OVC006
     FM150900 34014G23KT 4SM SHRA OVC012
     FM151100 33020G30KT 4SM SHRA OVC012
     FM151400 32014G22KT P6SM OVC020
     FM151800 30011G17KT P6SM BKN035
     FM152200 27006KT P6SM SCT040 BKN120=

USA.gov is the U.S. government's official web portal to all federal, state and local government web resources and services.